createdAt,value
2023-03-20T00:03:42.817Z,101318.66
2023-03-20T00:08:45.893Z,101333.63
2023-03-20T00:13:47.431Z,101334.59
2023-03-20T00:18:48.918Z,101338.88
2023-03-20T00:23:50.417Z,101343.13
2023-03-20T00:28:52.244Z,101345.97
2023-03-20T00:33:56.199Z,101348.22
2023-03-20T00:38:57.843Z,101359.06
2023-03-20T00:44:22.598Z,101365.91
2023-03-20T00:49:35.700Z,101371.66
2023-03-20T00:54:37.238Z,101367.31
2023-03-20T00:59:54.042Z,101371.69
2023-03-20T01:04:55.915Z,101375.31
2023-03-20T01:09:57.450Z,101378.59
2023-03-20T01:14:59.590Z,101373.84
2023-03-20T01:20:01.175Z,101369.06
2023-03-20T01:25:02.726Z,101370.25
2023-03-20T01:30:15.672Z,101377.63
2023-03-20T01:35:20.863Z,101371.59
2023-03-20T01:40:37.679Z,101377.16
2023-03-20T01:45:42.499Z,101368.97
2023-03-20T01:50:44.502Z,101363.84
2023-03-20T01:55:53.529Z,101350.06
2023-03-20T02:00:56.392Z,101349.09
2023-03-20T02:05:59.131Z,101347.63
2023-03-20T02:11:19.735Z,101348.78
2023-03-20T02:16:21.367Z,101357.00
2023-03-20T02:22:12.925Z,101353.91
2023-03-20T02:27:37.946Z,101361.09
2023-03-20T02:33:13.155Z,101357.16
2023-03-20T02:38:26.993Z,101367.16
2023-03-20T02:43:37.683Z,101354.72
2023-03-20T02:49:01.355Z,101344.41
2023-03-20T02:54:33.313Z,101351.59
2023-03-20T03:00:04.630Z,101338.84
2023-03-20T03:05:19.005Z,101328.56
2023-03-20T03:10:28.887Z,101354.41
2023-03-20T03:15:39.910Z,101361.63
2023-03-20T03:20:44.702Z,101360.50
2023-03-20T03:25:46.706Z,101368.34
2023-03-20T03:30:49.692Z,101357.72
2023-03-20T03:35:57.944Z,101366.06
2023-03-20T03:41:05.558Z,101375.41
2023-03-20T03:46:32.484Z,101350.66
2023-03-20T03:51:39.720Z,101337.91
2023-03-20T03:56:47.180Z,101342.44
2023-03-20T04:01:50.170Z,101345.91
2023-03-20T04:06:51.981Z,101349.00
2023-03-20T04:11:53.915Z,101364.88
2023-03-20T04:16:55.455Z,101375.09
2023-03-20T04:21:57.172Z,101370.97
2023-03-20T04:26:58.799Z,101370.28
2023-03-20T04:32:00.504Z,101369.78
2023-03-20T04:37:19.047Z,101365.06
2023-03-20T04:42:26.273Z,101375.22
2023-03-20T04:47:33.255Z,101368.16
2023-03-20T04:52:34.902Z,101349.50
2023-03-20T04:57:36.874Z,101343.41
2023-03-20T05:02:40.823Z,101342.88
2023-03-20T05:07:42.447Z,101339.28
2023-03-20T05:12:47.667Z,101339.88
2023-03-20T05:18:07.832Z,101339.22
2023-03-20T05:23:47.618Z,101331.16
2023-03-20T05:29:11.464Z,101323.59
2023-03-20T05:34:31.402Z,101324.44
2023-03-20T05:39:42.758Z,101337.41
2023-03-20T05:45:05.835Z,101328.88
2023-03-20T05:50:22.251Z,101334.28
2023-03-20T05:55:30.676Z,101339.47
2023-03-20T06:00:52.444Z,101349.03
2023-03-20T06:06:17.851Z,101348.13
2023-03-20T06:11:23.537Z,101347.50
2023-03-20T06:16:25.338Z,101362.59
2023-03-20T06:21:27.490Z,101355.06
2023-03-20T06:26:30.112Z,101360.13
2023-03-20T06:31:38.888Z,101355.88
2023-03-20T06:36:45.365Z,101349.25
2023-03-20T06:41:53.295Z,101364.00
2023-03-20T06:46:58.566Z,101357.03
2023-03-20T06:52:00.355Z,101360.50
2023-03-20T06:57:02.431Z,101370.13
2023-03-20T07:02:04.445Z,101370.31
2023-03-20T07:07:06.157Z,101365.53
2023-03-20T07:12:14.797Z,101375.88
2023-03-20T07:17:19.202Z,101397.66
2023-03-20T07:22:23.236Z,101410.31
2023-03-20T07:27:26.129Z,101421.19
2023-03-20T07:32:30.279Z,101430.16
2023-03-20T07:37:31.994Z,101432.25
2023-03-20T07:42:37.304Z,101437.50
2023-03-20T07:47:47.664Z,101446.25
2023-03-20T07:52:50.031Z,101438.06
2023-03-20T07:57:51.573Z,101438.88
2023-03-20T08:02:53.204Z,101444.97
2023-03-20T08:07:54.954Z,101450.31
2023-03-20T08:12:56.544Z,101453.91
2023-03-20T08:17:58.054Z,101466.41
2023-03-20T08:22:59.626Z,101465.22
2023-03-20T08:28:01.847Z,101466.09
2023-03-20T08:33:03.570Z,101470.59
2023-03-20T08:38:05.179Z,101467.84
2023-03-20T08:43:06.680Z,101468.00
2023-03-20T08:48:09.220Z,101468.38
2023-03-20T08:53:10.988Z,101461.75
2023-03-20T08:58:12.511Z,101468.63
2023-03-20T09:03:21.453Z,101475.31
2023-03-20T09:08:23.025Z,101480.28
2023-03-20T09:13:27.419Z,101476.69
2023-03-20T09:18:29.650Z,101471.41
2023-03-20T09:23:31.249Z,101461.09
2023-03-20T09:28:33.024Z,101469.97
2023-03-20T09:33:34.540Z,101476.31
2023-03-20T09:38:36.082Z,101470.13
2023-03-20T09:44:00.092Z,101473.41
2023-03-20T09:49:13.325Z,101480.13
2023-03-20T09:54:54.164Z,101469.31
2023-03-20T10:00:01.475Z,101477.38
2023-03-20T10:05:04.158Z,101464.31
2023-03-20T10:10:06.124Z,101465.47
2023-03-20T10:15:44.918Z,101465.66
2023-03-20T10:21:04.738Z,101465.22
2023-03-20T10:26:11.629Z,101461.19
2023-03-20T10:31:34.332Z,101466.75
2023-03-20T10:36:59.115Z,101454.09
2023-03-20T10:42:03.601Z,101461.16
2023-03-20T10:47:09.838Z,101462.97
2023-03-20T10:52:22.548Z,101457.09
2023-03-20T10:57:31.069Z,101460.63
2023-03-20T11:02:32.565Z,101445.00
2023-03-20T11:07:37.503Z,101449.88
2023-03-20T11:12:47.415Z,101441.47
2023-03-20T11:18:02.324Z,101445.41
2023-03-20T11:23:08.020Z,101451.03
2023-03-20T11:28:37.202Z,101446.59
2023-03-20T11:33:41.195Z,101433.16
2023-03-20T11:38:45.198Z,101427.09
2023-03-20T11:43:46.708Z,101416.56
2023-03-20T11:49:01.179Z,101414.78
2023-03-20T11:54:07.060Z,101416.25
2023-03-20T11:59:16.484Z,101409.81
2023-03-20T12:04:28.109Z,101407.84
2023-03-20T12:09:47.679Z,101396.91
2023-03-20T12:15:15.364Z,101399.75
2023-03-20T12:20:50.633Z,101396.78
2023-03-20T12:25:57.754Z,101395.66
2023-03-20T12:31:26.329Z,101389.25
2023-03-20T12:36:39.053Z,101378.94
2023-03-20T12:42:11.095Z,101375.59
2023-03-20T12:47:45.926Z,101366.09
2023-03-20T12:53:25.396Z,101364.19
2023-03-20T12:58:36.029Z,101368.50
2023-03-20T13:04:01.917Z,101369.81
2023-03-20T13:09:30.490Z,101363.44
2023-03-20T13:15:04.173Z,101353.69
2023-03-20T13:20:24.817Z,101352.06
2023-03-20T13:26:00.817Z,101352.13
2023-03-20T13:31:09.007Z,101350.66
2023-03-20T13:36:23.297Z,101350.28
2023-03-20T13:41:27.074Z,101346.91
2023-03-20T13:46:44.040Z,101344.09
2023-03-20T13:52:05.388Z,101346.72
2023-03-20T13:57:34.532Z,101333.63
2023-03-20T14:03:00.689Z,101326.69
2023-03-20T14:08:21.647Z,101315.81
2023-03-20T14:13:23.535Z,101317.16
2023-03-20T14:18:25.966Z,101320.00
2023-03-20T14:23:38.981Z,101316.38
2023-03-20T14:28:53.359Z,101314.94
2023-03-20T14:34:07.101Z,101321.19
2023-03-20T14:39:47.153Z,101316.63
2023-03-20T14:45:10.138Z,101311.44
2023-03-20T14:50:25.939Z,101308.47
2023-03-20T14:55:29.506Z,101305.00
2023-03-20T15:00:44.384Z,101292.97
2023-03-20T15:05:47.234Z,101283.19
2023-03-20T15:10:58.182Z,101282.81
2023-03-20T15:16:05.917Z,101278.06
2023-03-20T15:21:15.015Z,101277.53
2023-03-20T15:26:19.620Z,101283.25
2023-03-20T15:31:27.033Z,101278.25
2023-03-20T15:36:32.460Z,101271.44
2023-03-20T15:41:37.619Z,101272.50
2023-03-20T15:46:39.182Z,101269.69
2023-03-20T15:51:40.761Z,101262.25
2023-03-20T15:56:45.424Z,101248.25
2023-03-20T16:01:49.656Z,101256.50
2023-03-20T16:06:58.976Z,101254.75
2023-03-20T16:12:03.464Z,101251.06
2023-03-20T16:17:05.497Z,101256.28
2023-03-20T16:22:13.085Z,101245.88
2023-03-20T16:27:22.723Z,101244.59
2023-03-20T16:32:33.880Z,101235.47
2023-03-20T16:37:43.511Z,101229.69
2023-03-20T16:42:45.731Z,101229.50
2023-03-20T16:47:48.785Z,101218.09
2023-03-20T16:52:56.163Z,101221.72
2023-03-20T16:58:05.804Z,101229.91
2023-03-20T17:03:14.731Z,101227.63
2023-03-20T17:08:25.635Z,101227.00
2023-03-20T17:13:27.333Z,101232.59
2023-03-20T17:18:29.631Z,101222.81
2023-03-20T17:23:31.393Z,101221.50
2023-03-20T17:28:35.907Z,101230.50
2023-03-20T17:33:37.503Z,101232.09
2023-03-20T17:38:39.033Z,101237.03
2023-03-20T17:43:40.570Z,101238.94
2023-03-20T17:48:42.292Z,101240.66
2023-03-20T17:53:44.117Z,101244.28
2023-03-20T17:58:45.769Z,101240.09
2023-03-20T18:03:47.292Z,101257.19
2023-03-20T18:08:48.803Z,101259.81
2023-03-20T18:13:50.479Z,101257.81
2023-03-20T18:18:52.992Z,101260.16
2023-03-20T18:23:54.520Z,101254.53
2023-03-20T18:28:56.255Z,101252.72
2023-03-20T18:33:57.807Z,101251.56
2023-03-20T18:38:59.972Z,101252.47
2023-03-20T18:44:01.521Z,101247.22
2023-03-20T18:49:03.263Z,101245.84
2023-03-20T18:54:04.840Z,101251.47
2023-03-20T18:59:07.714Z,101243.28
2023-03-20T19:04:09.354Z,101247.56
2023-03-20T19:09:12.109Z,101248.22
2023-03-20T19:14:13.829Z,101250.56
2023-03-20T19:19:15.720Z,101253.34
2023-03-20T19:24:17.257Z,101246.31
2023-03-20T19:29:18.805Z,101246.31
2023-03-20T19:35:00.937Z,101243.41
2023-03-20T19:39:41.827Z,101241.31
2023-03-20T19:44:43.335Z,101234.22
2023-03-20T19:49:44.848Z,101229.13
2023-03-20T19:55:01.647Z,101223.50
2023-03-20T20:05:27.857Z,101222.88
2023-03-20T20:10:44.685Z,101219.22
2023-03-20T20:15:46.926Z,101226.94
2023-03-20T20:21:31.949Z,101234.78
2023-03-20T20:26:10.612Z,101228.91
2023-03-20T20:31:12.199Z,101228.97
2023-03-20T20:37:08.355Z,101225.09
2023-03-20T20:41:35.600Z,101221.25
2023-03-20T20:46:37.147Z,101221.25
2023-03-20T20:51:38.676Z,101211.75
2023-03-20T20:56:40.364Z,101208.75
2023-03-20T21:01:42.044Z,101211.03
2023-03-20T21:07:08.250Z,101208.50
2023-03-20T21:12:05.433Z,101207.75
2023-03-20T21:17:08.443Z,101208.84
2023-03-20T21:22:12.664Z,101215.44
2023-03-20T21:27:15.522Z,101219.78
2023-03-20T21:32:19.075Z,101222.84
2023-03-20T21:42:42.231Z,101226.78
2023-03-20T21:48:30.662Z,101224.22
2023-03-20T21:53:57.107Z,101217.03
2023-03-20T21:59:14.740Z,101218.75
2023-03-20T22:46:46.635Z,101215.88
2023-03-20T22:52:07.767Z,101219.56
2023-03-20T22:57:10.205Z,101214.38
2023-03-20T23:02:11.749Z,101204.50
2023-03-20T23:07:13.301Z,101199.44
2023-03-20T23:12:14.839Z,101200.31
2023-03-20T23:17:16.499Z,101201.50
2023-03-20T23:22:18.052Z,101192.78
2023-03-20T23:27:19.831Z,101187.53
2023-03-20T23:32:21.343Z,101193.25
2023-03-20T23:37:23.377Z,101187.53
2023-03-20T23:42:30.702Z,101183.44
2023-03-20T23:47:43.926Z,101178.19
2023-03-20T23:58:07.655Z,101168.63
